createdAt,value
2018-12-06T00:00:05.817Z,102512.11
2018-12-06T00:02:34.865Z,102510.07
2018-12-06T00:05:03.924Z,102506.02
2018-12-06T00:07:33.006Z,102510.94
2018-12-06T00:10:02.056Z,102511.20
2018-12-06T00:12:31.117Z,102510.80
2018-12-06T00:15:07.949Z,102509.88
2018-12-06T00:17:37.004Z,102507.34
2018-12-06T00:20:06.065Z,102509.94
2018-12-06T00:22:35.148Z,102510.80
2018-12-06T00:25:05.161Z,102508.19
2018-12-06T00:27:34.214Z,102509.41
2018-12-06T00:30:11.701Z,102503.54
2018-12-06T00:32:40.745Z,102502.12
2018-12-06T00:35:09.787Z,102503.88
2018-12-06T00:37:38.863Z,102500.84
2018-12-06T00:40:07.917Z,102497.52
2018-12-06T00:42:36.961Z,102497.35
2018-12-06T00:45:06.035Z,102500.76
2018-12-06T00:47:35.094Z,102495.98
2018-12-06T00:50:04.136Z,102493.92
2018-12-06T00:52:33.228Z,102491.36
2018-12-06T00:55:02.280Z,102491.75
2018-12-06T00:57:31.338Z,102495.75
2018-12-06T01:00:00.417Z,102499.99
2018-12-06T01:02:29.506Z,102503.58
2018-12-06T01:05:13.015Z,102501.94
2018-12-06T01:07:42.061Z,102505.07
2018-12-06T01:10:11.123Z,102502.45
2018-12-06T01:12:40.332Z,102499.81
2018-12-06T01:15:09.386Z,102502.95
2018-12-06T01:17:38.452Z,102500.80
2018-12-06T01:20:07.527Z,102499.92
2018-12-06T01:22:36.580Z,102503.25
2018-12-06T01:25:05.643Z,102499.05
2018-12-06T01:27:34.732Z,102501.59
2018-12-06T01:30:03.792Z,102507.02
2018-12-06T01:32:32.840Z,102506.28
2018-12-06T01:35:06.175Z,102508.75
2018-12-06T01:37:35.268Z,102502.88
2018-12-06T01:40:04.328Z,102499.84
2018-12-06T01:42:33.493Z,102503.73
2018-12-06T01:45:22.726Z,102496.20
2018-12-06T01:47:51.807Z,102505.38
2018-12-06T01:50:20.888Z,102499.90
2018-12-06T01:52:49.911Z,102499.78
2018-12-06T01:55:19.023Z,102490.13
2018-12-06T01:57:48.072Z,102491.86
2018-12-06T02:00:17.118Z,102486.34
2018-12-06T02:02:46.200Z,102484.53
2018-12-06T02:05:15.255Z,102474.26
2018-12-06T02:07:44.311Z,102471.34
2018-12-06T02:10:13.387Z,102474.02
2018-12-06T02:12:42.437Z,102465.25
2018-12-06T02:15:18.624Z,102469.86
2018-12-06T02:17:47.676Z,102469.34
2018-12-06T02:20:16.742Z,102460.42
2018-12-06T02:22:45.830Z,102450.69
2018-12-06T02:25:14.894Z,102447.36
2018-12-06T02:27:43.957Z,102450.12
2018-12-06T02:30:13.053Z,102454.10
2018-12-06T02:32:42.101Z,102454.69
2018-12-06T02:35:11.157Z,102454.44
2018-12-06T02:37:40.261Z,102448.50
2018-12-06T02:40:09.327Z,102444.67
2018-12-06T02:42:38.383Z,102438.45
2018-12-06T02:45:25.473Z,102437.39
2018-12-06T02:47:54.546Z,102428.45
2018-12-06T02:50:23.614Z,102429.12
2018-12-06T02:52:52.847Z,102424.04
2018-12-06T02:55:21.910Z,102422.70
2018-12-06T02:57:50.988Z,102427.14
2018-12-06T03:00:20.108Z,102421.62
2018-12-06T03:02:49.169Z,102421.69
2018-12-06T03:05:18.232Z,102420.19
2018-12-06T03:07:47.318Z,102419.72
2018-12-06T03:10:16.387Z,102425.04
2018-12-06T03:12:45.462Z,102428.08
2018-12-06T03:15:14.567Z,102439.77
2018-12-06T03:17:43.626Z,102433.28
2018-12-06T03:20:12.690Z,102433.52
2018-12-06T03:22:41.844Z,102429.25
2018-12-06T03:25:10.909Z,102421.76
2018-12-06T03:27:39.973Z,102422.36
2018-12-06T03:30:09.058Z,102425.22
2018-12-06T03:32:38.120Z,102419.73
2018-12-06T03:35:07.188Z,102420.86
2018-12-06T03:37:36.285Z,102417.77
2018-12-06T03:40:05.345Z,102406.52
2018-12-06T03:42:34.417Z,102405.58
2018-12-06T03:45:03.515Z,102404.61
2018-12-06T03:47:32.578Z,102403.50
2018-12-06T03:50:01.623Z,102405.61
2018-12-06T03:52:30.715Z,102401.75
2018-12-06T03:55:00.766Z,102403.37
2018-12-06T03:57:29.829Z,102400.80
2018-12-06T03:59:58.932Z,102390.88
2018-12-06T04:02:27.995Z,102392.85
2018-12-06T04:04:58.092Z,102382.39
2018-12-06T04:07:27.208Z,102377.95
2018-12-06T04:09:56.260Z,102375.13
2018-12-06T04:12:25.329Z,102374.98
2018-12-06T04:14:54.417Z,102382.92
2018-12-06T04:17:23.471Z,102390.95
2018-12-06T04:19:52.524Z,102384.75
2018-12-06T04:22:21.621Z,102372.66
2018-12-06T04:24:50.674Z,102369.17
2018-12-06T04:27:19.735Z,102371.61
2018-12-06T04:29:48.819Z,102355.13
2018-12-06T04:32:17.889Z,102355.63
2018-12-06T04:34:46.961Z,102349.70
2018-12-06T04:37:16.047Z,102352.77
2018-12-06T04:39:45.133Z,102359.88
2018-12-06T04:42:14.192Z,102350.84
2018-12-06T04:44:43.326Z,102349.73
2018-12-06T04:47:14.251Z,102352.17
2018-12-06T04:49:41.441Z,102353.89
2018-12-06T04:52:10.523Z,102352.91
2018-12-06T04:54:39.579Z,102353.16
2018-12-06T04:57:08.625Z,102349.55
2018-12-06T04:59:37.710Z,102351.21
2018-12-06T05:02:06.759Z,102352.31
2018-12-06T05:04:35.815Z,102349.91
2018-12-06T05:07:04.933Z,102347.98
2018-12-06T05:09:34.018Z,102343.50
2018-12-06T05:12:03.098Z,102349.20
2018-12-06T05:14:32.184Z,102352.80
2018-12-06T05:17:01.256Z,102357.36
2018-12-06T05:19:30.319Z,102349.08
2018-12-06T05:21:59.409Z,102352.77
2018-12-06T05:24:28.471Z,102358.69
2018-12-06T05:26:57.553Z,102355.02
2018-12-06T05:29:26.682Z,102355.75
2018-12-06T05:31:55.748Z,102358.41
2018-12-06T05:34:24.813Z,102351.47
2018-12-06T05:36:53.892Z,102348.94
2018-12-06T05:39:22.946Z,102342.92
2018-12-06T05:41:52.028Z,102345.45
2018-12-06T05:44:21.103Z,102339.91
2018-12-06T05:46:50.167Z,102333.43
2018-12-06T05:49:19.215Z,102330.78
2018-12-06T05:51:48.343Z,102327.83
2018-12-06T05:54:17.441Z,102332.53
2018-12-06T05:56:46.486Z,102328.99
2018-12-06T05:59:15.893Z,102330.94
2018-12-06T06:01:44.952Z,102327.00
2018-12-06T06:04:14.026Z,102326.28
2018-12-06T06:06:43.123Z,102322.11
2018-12-06T06:09:12.194Z,102320.02
2018-12-06T06:11:41.256Z,102318.13
2018-12-06T06:14:10.365Z,102321.09
2018-12-06T06:16:39.458Z,102317.86
2018-12-06T06:19:08.479Z,102325.73
2018-12-06T06:21:37.565Z,102322.07
2018-12-06T06:24:06.610Z,102317.80
2018-12-06T06:26:35.672Z,102306.17
2018-12-06T06:29:04.757Z,102314.47
2018-12-06T06:31:33.838Z,102310.80
2018-12-06T06:34:02.909Z,102310.80
2018-12-06T06:36:31.999Z,102306.61
2018-12-06T06:39:01.062Z,102291.96
2018-12-06T06:41:30.109Z,102279.98
2018-12-06T06:43:59.194Z,102275.98
2018-12-06T06:46:28.263Z,102271.05
2018-12-06T06:48:57.330Z,102265.84
2018-12-06T06:51:26.420Z,102274.05
2018-12-06T06:53:55.508Z,102270.48
2018-12-06T06:56:24.576Z,102264.61
2018-12-06T06:58:53.725Z,102269.25
2018-12-06T07:01:23.027Z,102271.36
2018-12-06T07:03:51.872Z,102267.25
2018-12-06T07:06:20.982Z,102264.66
2018-12-06T07:08:50.074Z,102262.26
2018-12-06T07:11:19.137Z,102269.05
2018-12-06T07:13:48.291Z,102264.37
2018-12-06T07:16:17.377Z,102254.70
2018-12-06T07:18:46.456Z,102251.03
2018-12-06T07:21:15.659Z,102249.84
2018-12-06T07:23:44.707Z,102248.39
2018-12-06T07:26:13.788Z,102244.47
2018-12-06T07:28:42.978Z,102241.05
2018-12-06T07:31:12.110Z,102235.03
2018-12-06T07:33:41.160Z,102230.31
2018-12-06T07:36:10.258Z,102220.22
2018-12-06T07:38:39.320Z,102218.56
2018-12-06T07:41:08.395Z,102220.41
2018-12-06T07:43:37.546Z,102221.46
2018-12-06T07:46:08.585Z,102217.01
2018-12-06T07:48:39.426Z,102208.70
2018-12-06T07:51:06.741Z,102213.34
2018-12-06T07:53:35.827Z,102214.65
2018-12-06T07:56:04.917Z,102218.25
2018-12-06T07:58:33.985Z,102211.75
2018-12-06T08:01:03.049Z,102213.64
2018-12-06T08:03:32.100Z,102224.78
2018-12-06T08:06:01.222Z,102217.52
2018-12-06T08:08:30.282Z,102217.85
2018-12-06T08:11:00.110Z,102213.70
2018-12-06T08:13:29.214Z,102210.40
2018-12-06T08:15:58.702Z,102193.83
2018-12-06T08:18:27.759Z,102201.38
2018-12-06T08:20:56.834Z,102194.66
2018-12-06T08:23:25.884Z,102190.88
2018-12-06T08:25:54.951Z,102181.65
2018-12-06T08:28:24.055Z,102182.40
2018-12-06T08:30:53.114Z,102180.94
2018-12-06T08:33:22.161Z,102175.95
2018-12-06T08:35:51.264Z,102175.70
2018-12-06T08:38:20.322Z,102166.59
2018-12-06T08:40:49.398Z,102163.38
2018-12-06T08:43:18.462Z,102160.05
2018-12-06T08:45:47.748Z,102169.08
2018-12-06T08:48:16.585Z,102171.63
2018-12-06T08:50:45.707Z,102168.59
2018-12-06T08:53:14.775Z,102176.94
2018-12-06T08:55:43.836Z,102184.22
2018-12-06T08:58:13.658Z,102175.34
2018-12-06T09:00:42.711Z,102180.11
2018-12-06T09:03:11.775Z,102179.31
2018-12-06T09:05:41.784Z,102174.23
2018-12-06T09:08:10.986Z,102167.59
2018-12-06T09:10:40.985Z,102176.77
2018-12-06T09:13:10.103Z,102172.31
2018-12-06T09:15:53.708Z,102176.73
2018-12-06T09:18:22.859Z,102169.11
2018-12-06T09:20:51.851Z,102180.62
2018-12-06T09:23:20.915Z,102177.27
2018-12-06T09:25:50.012Z,102184.27
2018-12-06T09:28:19.067Z,102177.72
2018-12-06T09:30:48.138Z,102170.57
2018-12-06T09:33:17.263Z,102156.39
2018-12-06T09:35:46.313Z,102144.30
2018-12-06T09:38:15.385Z,102143.05
2018-12-06T09:40:44.492Z,102148.13
2018-12-06T09:43:13.579Z,102146.23
2018-12-06T09:45:43.670Z,102142.14
2018-12-06T09:48:12.744Z,102146.69
2018-12-06T09:50:41.815Z,102158.75
2018-12-06T09:53:10.886Z,102155.16
2018-12-06T09:55:39.989Z,102149.48
2018-12-06T09:58:09.061Z,102150.86
2018-12-06T10:00:38.117Z,102148.61
2018-12-06T10:03:07.207Z,102154.28
2018-12-06T10:05:46.842Z,102151.77
2018-12-06T10:08:15.925Z,102145.70
2018-12-06T10:10:44.986Z,102138.64
2018-12-06T10:13:14.038Z,102137.14
2018-12-06T10:15:43.124Z,102142.51
2018-12-06T10:18:12.214Z,102140.58
2018-12-06T10:20:41.285Z,102141.89
2018-12-06T10:23:10.372Z,102138.08
2018-12-06T10:25:40.470Z,102125.36
2018-12-06T10:28:09.528Z,102130.61
2018-12-06T10:30:38.679Z,102123.95
2018-12-06T10:33:07.725Z,102124.73
2018-12-06T10:35:36.780Z,102116.78
2018-12-06T10:38:05.913Z,102109.00
2018-12-06T10:40:34.958Z,102106.28
2018-12-06T10:43:04.005Z,102118.54
2018-12-06T10:45:33.079Z,102109.42
2018-12-06T10:48:02.133Z,102107.92
2018-12-06T10:50:31.188Z,102109.18
2018-12-06T10:53:00.264Z,102103.13
2018-12-06T10:55:29.308Z,102104.18
2018-12-06T10:57:58.377Z,102099.47
2018-12-06T11:00:33.235Z,102096.58
2018-12-06T11:03:03.108Z,102103.03
2018-12-06T11:05:32.168Z,102097.86
2018-12-06T11:08:01.259Z,102101.59
2018-12-06T11:10:30.334Z,102101.69
2018-12-06T11:12:59.386Z,102097.31
2018-12-06T11:15:28.468Z,102093.00
2018-12-06T11:17:57.520Z,102076.69
2018-12-06T11:20:26.579Z,102067.53
2018-12-06T11:22:55.913Z,102073.31
2018-12-06T11:25:24.965Z,102072.86
2018-12-06T11:27:54.021Z,102075.25
2018-12-06T11:30:23.248Z,102076.94
2018-12-06T11:32:52.289Z,102063.59
2018-12-06T11:35:21.342Z,102058.05
2018-12-06T11:37:50.430Z,102057.30
2018-12-06T11:40:19.484Z,102049.00
2018-12-06T11:42:48.556Z,102042.34
2018-12-06T11:45:17.682Z,102048.00
2018-12-06T11:47:46.750Z,102040.85
2018-12-06T11:50:15.793Z,102029.30
2018-12-06T11:52:44.893Z,102030.17
2018-12-06T11:55:13.963Z,102032.53
2018-12-06T11:57:42.996Z,102028.17
2018-12-06T12:00:12.083Z,102024.74
2018-12-06T12:02:41.124Z,102017.78
2018-12-06T12:05:10.169Z,102019.34
2018-12-06T12:07:40.091Z,102009.02
2018-12-06T12:10:09.160Z,102003.69
2018-12-06T12:12:38.206Z,101991.33
2018-12-06T12:15:07.299Z,101993.94
2018-12-06T12:17:36.367Z,101985.92
2018-12-06T12:20:05.557Z,101990.21
2018-12-06T12:22:34.523Z,101977.14
2018-12-06T12:25:03.585Z,101965.20
2018-12-06T12:27:32.637Z,101952.31
2018-12-06T12:30:01.729Z,101943.69
2018-12-06T12:32:30.791Z,101938.84
2018-12-06T12:34:59.853Z,101935.59
2018-12-06T12:37:29.219Z,101931.98
2018-12-06T12:39:58.286Z,101920.48
2018-12-06T12:42:27.338Z,101912.98
2018-12-06T12:44:56.429Z,101904.56
2018-12-06T12:47:25.518Z,101898.47
2018-12-06T12:49:54.559Z,101890.13
2018-12-06T12:52:23.650Z,101898.31
2018-12-06T12:54:52.693Z,101894.44
2018-12-06T12:57:21.766Z,101894.39
2018-12-06T12:59:50.845Z,101884.83
2018-12-06T13:02:19.900Z,101881.67
2018-12-06T13:04:48.957Z,101879.42
2018-12-06T13:07:18.051Z,101880.17
2018-12-06T13:09:47.126Z,101878.40
2018-12-06T13:12:16.190Z,101886.53
2018-12-06T13:14:45.321Z,101879.16
2018-12-06T13:17:14.372Z,101881.95
2018-12-06T13:19:43.434Z,101886.64
2018-12-06T13:22:12.524Z,101883.89
2018-12-06T13:24:41.572Z,101880.78
2018-12-06T13:27:10.621Z,101876.19
2018-12-06T13:29:39.698Z,101871.88
2018-12-06T13:32:08.765Z,101860.87
2018-12-06T13:34:37.832Z,101864.13
2018-12-06T13:37:06.941Z,101866.47
2018-12-06T13:39:36.004Z,101852.12
2018-12-06T13:42:05.085Z,101842.52
2018-12-06T13:44:34.168Z,101839.84
2018-12-06T13:47:03.252Z,101833.84
2018-12-06T13:49:32.301Z,101839.50
2018-12-06T13:52:01.388Z,101834.85
2018-12-06T13:54:30.446Z,101837.89
2018-12-06T13:56:59.503Z,101825.23
2018-12-06T13:59:28.645Z,101821.79
2018-12-06T14:01:57.708Z,101823.98
2018-12-06T14:04:26.763Z,101816.75
2018-12-06T14:06:55.961Z,101812.78
2018-12-06T14:09:25.012Z,101815.19
2018-12-06T14:11:54.086Z,101813.91
2018-12-06T14:14:23.166Z,101813.58
2018-12-06T14:16:52.212Z,101806.46
2018-12-06T14:19:21.268Z,101799.48
2018-12-06T14:21:50.365Z,101793.08
2018-12-06T14:24:19.425Z,101778.70
2018-12-06T14:26:48.495Z,101784.84
2018-12-06T14:29:17.667Z,101779.37
2018-12-06T14:31:46.718Z,101784.20
2018-12-06T14:34:15.757Z,101776.36
2018-12-06T14:36:44.849Z,101763.36
2018-12-06T14:39:13.911Z,101763.89
2018-12-06T14:41:42.970Z,101761.48
2018-12-06T14:44:12.075Z,101760.69
2018-12-06T14:46:41.157Z,101763.44
2018-12-06T14:49:10.227Z,101765.34
2018-12-06T14:51:39.314Z,101766.98
2018-12-06T14:54:08.376Z,101775.78
2018-12-06T14:56:37.422Z,101774.91
2018-12-06T14:59:06.509Z,101778.73
2018-12-06T15:01:35.566Z,101778.78
2018-12-06T15:04:04.628Z,101759.95
2018-12-06T15:06:37.553Z,101756.94
2018-12-06T15:09:02.783Z,101748.16
2018-12-06T15:11:31.839Z,101745.66
2018-12-06T15:14:00.936Z,101738.06
2018-12-06T15:16:30.016Z,101737.58
2018-12-06T15:18:59.062Z,101741.08
2018-12-06T15:21:28.139Z,101741.14
2018-12-06T15:23:57.186Z,101746.21
2018-12-06T15:26:26.235Z,101747.41
2018-12-06T15:28:55.437Z,101743.15
2018-12-06T15:31:24.508Z,101742.36
2018-12-06T15:33:53.570Z,101750.08
2018-12-06T15:36:22.658Z,101750.88
2018-12-06T15:38:51.712Z,101742.39
2018-12-06T15:41:20.765Z,101738.56
2018-12-06T15:43:49.929Z,101730.95
2018-12-06T15:46:18.915Z,101734.36
2018-12-06T15:48:47.981Z,101730.07
2018-12-06T15:51:17.178Z,101729.20
2018-12-06T15:53:46.227Z,101728.37
2018-12-06T15:56:15.288Z,101730.52
2018-12-06T15:58:44.376Z,101741.80
2018-12-06T16:01:13.454Z,101741.52
2018-12-06T16:03:42.524Z,101738.45
2018-12-06T16:06:11.606Z,101735.80
2018-12-06T16:08:40.668Z,101739.16
2018-12-06T16:11:09.741Z,101731.97
2018-12-06T16:13:38.863Z,101734.38
2018-12-06T16:16:07.929Z,101732.27
2018-12-06T16:18:36.992Z,101726.59
2018-12-06T16:21:06.071Z,101729.52
2018-12-06T16:23:35.130Z,101728.55
2018-12-06T16:26:04.187Z,101717.30
2018-12-06T16:28:33.284Z,101718.84
2018-12-06T16:31:02.345Z,101703.89
2018-12-06T16:33:31.394Z,101706.78
2018-12-06T16:36:00.504Z,101701.93
2018-12-06T16:38:29.604Z,101700.03
2018-12-06T16:40:58.641Z,101698.39
2018-12-06T16:43:27.722Z,101699.66
2018-12-06T16:45:56.773Z,101706.12
2018-12-06T16:48:25.825Z,101710.19
2018-12-06T16:50:54.919Z,101712.33
2018-12-06T16:53:23.984Z,101714.22
2018-12-06T16:55:53.049Z,101712.09
2018-12-06T16:58:22.178Z,101706.88
2018-12-06T17:00:51.237Z,101703.47
2018-12-06T17:03:20.289Z,101694.70
2018-12-06T17:05:49.377Z,101694.68
2018-12-06T17:08:18.450Z,101701.05
2018-12-06T17:10:47.491Z,101698.28
2018-12-06T17:13:16.594Z,101699.77
2018-12-06T17:15:45.657Z,101699.65
2018-12-06T17:18:14.735Z,101705.69
2018-12-06T17:20:43.873Z,101710.00
2018-12-06T17:23:12.944Z,101708.59
2018-12-06T17:25:42.009Z,101710.67
2018-12-06T17:28:11.091Z,101697.27
2018-12-06T17:30:40.152Z,101696.62
2018-12-06T17:33:09.218Z,101690.72
2018-12-06T17:35:38.308Z,101694.82
2018-12-06T17:38:07.374Z,101686.83
2018-12-06T17:40:36.435Z,101680.66
2018-12-06T17:43:05.540Z,101678.41
2018-12-06T17:45:34.594Z,101679.45
2018-12-06T17:48:03.645Z,101676.59
2018-12-06T17:50:32.735Z,101685.13
2018-12-06T17:53:01.781Z,101684.55
2018-12-06T17:55:30.841Z,101681.19
2018-12-06T17:57:59.936Z,101685.13
2018-12-06T18:00:29.014Z,101684.41
2018-12-06T18:02:58.070Z,101674.16
2018-12-06T18:05:27.403Z,101664.56
2018-12-06T18:07:56.456Z,101668.98
2018-12-06T18:10:25.517Z,101666.33
2018-12-06T18:12:54.615Z,101667.20
2018-12-06T18:15:23.672Z,101665.48
2018-12-06T18:17:52.715Z,101668.27
2018-12-06T18:20:21.871Z,101663.73
2018-12-06T18:22:50.931Z,101656.87
2018-12-06T18:25:22.071Z,101647.17
2018-12-06T18:27:51.135Z,101642.73
2018-12-06T18:30:20.191Z,101641.45
2018-12-06T18:32:49.273Z,101630.84
2018-12-06T18:35:18.346Z,101623.76
2018-12-06T18:37:47.417Z,101622.15
2018-12-06T18:40:16.526Z,101615.12
2018-12-06T18:42:45.590Z,101611.28
2018-12-06T18:45:14.654Z,101602.84
2018-12-06T18:47:43.774Z,101595.94
2018-12-06T18:50:12.831Z,101597.08
2018-12-06T18:52:41.895Z,101598.34
2018-12-06T18:55:11.067Z,101580.64
2018-12-06T18:57:40.047Z,101576.70
2018-12-06T19:00:09.139Z,101574.13
2018-12-06T19:02:38.230Z,101574.23
2018-12-06T19:05:07.293Z,101566.07
2018-12-06T19:07:36.362Z,101572.33
2018-12-06T19:10:05.479Z,101564.88
2018-12-06T19:12:34.537Z,101559.70
2018-12-06T19:15:03.619Z,101555.48
2018-12-06T19:17:32.693Z,101557.55
2018-12-06T19:20:01.750Z,101542.63
2018-12-06T19:22:30.826Z,101543.33
2018-12-06T19:24:59.915Z,101542.34
2018-12-06T19:27:28.976Z,101538.85
2018-12-06T19:29:58.025Z,101543.98
2018-12-06T19:32:27.135Z,101535.16
2018-12-06T19:34:56.195Z,101527.64
2018-12-06T19:37:25.253Z,101528.18
2018-12-06T19:39:54.323Z,101520.51
2018-12-06T19:42:23.380Z,101512.91
2018-12-06T19:44:53.391Z,101507.05
2018-12-06T19:47:22.478Z,101496.29
2018-12-06T19:49:51.918Z,101491.78
2018-12-06T19:52:20.969Z,101487.03
2018-12-06T19:54:50.111Z,101482.72
2018-12-06T19:57:19.168Z,101487.39
2018-12-06T19:59:48.232Z,101481.61
2018-12-06T20:02:17.403Z,101472.19
2018-12-06T20:04:46.475Z,101467.13
2018-12-06T20:07:15.527Z,101470.42
2018-12-06T20:09:44.615Z,101460.80
2018-12-06T20:12:13.687Z,101454.98
2018-12-06T20:14:42.756Z,101453.52
2018-12-06T20:17:11.856Z,101440.02
2018-12-06T20:19:40.937Z,101443.55
2018-12-06T20:22:10.117Z,101433.83
2018-12-06T20:24:39.204Z,101422.91
2018-12-06T20:27:08.278Z,101416.09
2018-12-06T20:29:37.339Z,101409.87
2018-12-06T20:32:06.447Z,101407.56
2018-12-06T20:34:35.513Z,101401.62
2018-12-06T20:37:04.597Z,101401.08
2018-12-06T20:39:33.734Z,101389.75
2018-12-06T20:42:03.699Z,101386.37
2018-12-06T20:44:32.759Z,101391.66
2018-12-06T20:47:01.854Z,101380.95
2018-12-06T20:49:30.926Z,101386.18
2018-12-06T20:52:00.026Z,101370.38
2018-12-06T20:54:29.068Z,101373.97
2018-12-06T20:56:58.136Z,101365.81
2018-12-06T20:59:27.209Z,101370.11
2018-12-06T21:01:56.697Z,101371.24
2018-12-06T21:04:25.751Z,101370.45
2018-12-06T21:06:54.805Z,101370.18
2018-12-06T21:09:23.897Z,101367.16
2018-12-06T21:11:52.957Z,101360.33
2018-12-06T21:14:22.234Z,101352.92
2018-12-06T21:16:51.097Z,101345.75
2018-12-06T21:19:20.155Z,101346.47
2018-12-06T21:21:49.222Z,101343.80
2018-12-06T21:24:18.316Z,101338.36
2018-12-06T21:26:47.366Z,101345.16
2018-12-06T21:29:16.429Z,101338.45
2018-12-06T21:31:45.508Z,101334.94
2018-12-06T21:34:14.559Z,101337.32
2018-12-06T21:36:43.640Z,101323.23
2018-12-06T21:39:12.747Z,101312.66
2018-12-06T21:41:41.802Z,101306.75
2018-12-06T21:44:10.861Z,101300.33
2018-12-06T21:46:41.063Z,101298.14
2018-12-06T21:49:10.169Z,101302.39
2018-12-06T21:51:48.754Z,101294.54
2018-12-06T21:54:16.596Z,101292.53
2018-12-06T21:56:45.668Z,101289.77
2018-12-06T21:59:14.734Z,101280.01
2018-12-06T22:01:43.924Z,101287.69
2018-12-06T22:04:12.988Z,101286.34
2018-12-06T22:06:42.056Z,101274.14
2018-12-06T22:09:11.134Z,101272.39
2018-12-06T22:11:40.193Z,101267.40
2018-12-06T22:14:09.247Z,101270.82
2018-12-06T22:16:38.347Z,101259.11
2018-12-06T22:19:07.421Z,101256.12
2018-12-06T22:21:36.478Z,101249.80
2018-12-06T22:24:05.580Z,101243.97
2018-12-06T22:26:34.636Z,101247.65
2018-12-06T22:29:03.703Z,101237.70
2018-12-06T22:31:32.788Z,101233.49
2018-12-06T22:34:01.862Z,101231.00
2018-12-06T22:36:30.928Z,101223.80
2018-12-06T22:39:00.074Z,101227.02
2018-12-06T22:41:29.075Z,101219.23
2018-12-06T22:43:58.137Z,101219.78
2018-12-06T22:46:27.245Z,101227.78
2018-12-06T22:48:56.295Z,101221.83
2018-12-06T22:51:25.346Z,101216.17
2018-12-06T22:53:54.428Z,101214.59
2018-12-06T22:56:23.496Z,101199.02
2018-12-06T22:58:52.555Z,101194.78
2018-12-06T23:01:21.636Z,101198.88
2018-12-06T23:03:50.700Z,101192.13
2018-12-06T23:06:19.751Z,101187.97
2018-12-06T23:08:48.876Z,101174.30
2018-12-06T23:11:17.937Z,101175.55
2018-12-06T23:13:47.001Z,101164.34
2018-12-06T23:16:16.083Z,101162.69
2018-12-06T23:18:45.126Z,101147.92
2018-12-06T23:21:14.178Z,101153.41
2018-12-06T23:23:43.262Z,101150.04
2018-12-06T23:26:12.316Z,101147.65
2018-12-06T23:28:41.365Z,101146.40
2018-12-06T23:31:10.477Z,101145.73
2018-12-06T23:33:39.543Z,101137.66
2018-12-06T23:36:08.588Z,101143.72
2018-12-06T23:38:37.705Z,101129.25
2018-12-06T23:41:06.775Z,101115.95
2018-12-06T23:43:35.835Z,101116.27
2018-12-06T23:46:05.306Z,101101.62
2018-12-06T23:48:34.349Z,101086.37
2018-12-06T23:51:19.162Z,101092.94
2018-12-06T23:53:48.220Z,101091.73
2018-12-06T23:56:17.266Z,101081.11
2018-12-06T23:58:46.339Z,101083.19
